Time;durP1;ratioP1;P1;durP2;ratioP2;P2;SDS_P1;SDS_P2;PMS_P1;PMS_P2;Temp;Humidity;BMP_temperature;BMP_pressure;BME280_temperature;BME280_humidity;BME280_pressure;Samples;Min_cycle;Max_cycle;Signal;HPM_P1;HPM_P2
2021/11/10 00:00:05;;;;;;;14.73;7.30;;;;;;;5.97;93.28;102037.28;5067126;28;20055;-80
2021/11/10 00:02:39;;;;;;;18.85;9.45;;;;;;;5.90;93.67;102028.88;5067939;28;20355;-81
2021/11/10 00:05:05;;;;;;;16.98;7.90;;;;;;;5.86;94.15;102037.97;5067489;28;20036;-81
2021/11/10 00:07:31;;;;;;;21.00;8.20;;;;;;;5.88;94.41;102047.50;5067630;28;20035;-81
2021/11/10 00:09:57;;;;;;;19.95;9.82;;;;;;;5.87;94.45;102045.78;5067733;28;20040;-81
2021/11/10 00:12:23;;;;;;;17.20;7.97;;;;;;;5.81;94.50;102035.63;5066720;28;20078;-81
2021/11/10 00:14:49;;;;;;;16.33;8.05;;;;;;;5.90;94.73;102064.19;5066283;28;20020;-80
2021/11/10 00:17:15;;;;;;;15.87;8.73;;;;;;;5.83;94.96;102043.44;5049454;28;20370;-81
2021/11/10 00:19:41;;;;;;;19.73;9.02;;;;;;;5.87;95.01;102058.22;5067413;28;20037;-81
2021/11/10 00:22:07;;;;;;;19.27;8.07;;;;;;;5.80;95.11;102041.84;5066358;28;20025;-82
2021/11/10 00:24:32;;;;;;;13.93;7.07;;;;;;;5.76;95.45;102048.31;5067054;28;20043;-81
2021/11/10 00:26:58;;;;;;;17.73;8.47;;;;;;;5.70;95.67;102044.25;5067632;28;20040;-81
2021/11/10 00:29:23;;;;;;;16.45;7.38;;;;;;;5.74;95.81;102049.38;5049866;28;20036;-81
2021/11/10 00:31:48;;;;;;;17.60;7.40;;;;;;;5.74;95.73;102058.16;5066458;28;20466;-81
2021/11/10 00:34:14;;;;;;;17.00;6.60;;;;;;;5.72;96.14;102065.34;5066074;28;20021;-81
2021/11/10 00:36:39;;;;;;;17.77;7.20;;;;;;;5.80;95.96;102075.47;5066212;28;20025;-81
2021/11/10 00:39:05;;;;;;;21.00;8.53;;;;;;;5.72;95.69;102062.72;5066268;28;20389;-81
2021/11/10 00:41:31;;;;;;;13.07;7.07;;;;;;;5.89;95.44;102081.00;5066327;28;20024;-81
2021/11/10 00:44:00;;;;;;;14.95;7.95;;;;;;;5.89;95.27;102073.06;5066017;28;20043;-80
2021/11/10 00:46:26;;;;;;;21.42;8.15;;;;;;;5.78;95.22;102046.41;5066337;28;20024;-81
2021/11/10 00:48:52;;;;;;;17.33;8.25;;;;;;;5.80;95.38;102060.41;5066344;28;20024;-81
2021/11/10 00:51:17;;;;;;;16.38;7.80;;;;;;;5.84;95.21;102056.59;5067167;28;20613;-81
2021/11/10 00:53:43;;;;;;;16.53;7.20;;;;;;;5.76;95.31;102053.63;5049587;28;20029;-81
2021/11/10 00:56:08;;;;;;;14.38;6.22;;;;;;;5.82;95.56;102058.50;5049367;28;20028;-82
2021/11/10 00:58:34;;;;;;;29.13;8.20;;;;;;;5.75;95.83;102043.09;5049232;28;20458;-81
2021/11/10 01:00:59;;;;;;;15.07;7.93;;;;;;;5.70;95.92;102046.91;5049479;28;20021;-81
2021/11/10 01:03:27;;;;;;;17.90;8.37;;;;;;;5.72;96.09;102054.75;5065623;28;20021;-81
2021/11/10 01:05:54;;;;;;;20.00;8.13;;;;;;;5.70;96.21;102054.00;5066213;28;20234;-81
2021/11/10 01:08:20;;;;;;;18.25;8.57;;;;;;;5.62;96.01;102037.72;5066318;28;20029;-81
2021/11/10 01:10:46;;;;;;;17.33;7.55;;;;;;;5.59;96.38;102041.44;5066470;28;20051;-81
2021/11/10 01:13:11;;;;;;;16.70;7.43;;;;;;;5.68;96.50;102056.75;5066300;28;20036;-81
2021/11/10 01:15:39;;;;;;;17.20;7.60;;;;;;;5.68;96.36;102053.25;5066046;28;20032;-81
2021/11/10 01:18:05;;;;;;;18.30;7.68;;;;;;;5.63;96.39;102058.00;5065920;28;20038;-81
2021/11/10 01:20:31;;;;;;;13.45;7.00;;;;;;;5.70;96.27;102069.91;5066110;28;20457;-81
2021/11/10 01:22:58;;;;;;;18.98;7.78;;;;;;;5.71;96.13;102064.50;5067187;28;20025;-81
2021/11/10 01:25:24;;;;;;;15.55;6.75;;;;;;;5.81;95.71;102072.72;5048858;28;20572;-81
2021/11/10 01:27:49;;;;;;;14.27;6.20;;;;;;;5.73;95.49;102043.19;5065973;28;20028;-81
2021/11/10 01:30:16;;;;;;;16.30;7.22;;;;;;;5.77;95.40;102050.00;5051807;28;20032;-81
2021/11/10 01:32:44;;;;;;;15.63;7.00;;;;;;;5.78;95.00;102043.75;5069605;28;20089;-80
2021/11/10 01:35:10;;;;;;;16.92;6.63;;;;;;;5.76;95.21;102045.66;5052648;28;20060;-81
2021/11/10 01:37:36;;;;;;;14.02;6.50;;;;;;;5.77;94.94;102044.72;5052912;28;20549;-81
2021/11/10 01:40:04;;;;;;;21.05;7.20;;;;;;;5.77;94.75;102035.91;5069482;28;20038;-81
2021/11/10 01:42:32;;;;;;;13.23;6.20;;;;;;;5.80;94.77;102043.66;5053035;28;20123;-81
2021/11/10 01:44:58;;;;;;;15.40;6.85;;;;;;;5.84;94.66;102040.72;5069403;28;20155;-80
2021/11/10 01:47:27;;;;;;;13.40;7.70;;;;;;;5.78;94.56;102030.50;5053269;28;20039;-80
2021/11/10 01:49:58;;;;;;;15.43;6.80;;;;;;;5.78;94.58;102033.16;5069589;28;20036;-81
2021/11/10 01:52:24;;;;;;;15.77;6.57;;;;;;;5.71;94.39;102016.81;5070381;28;20050;-81
2021/11/10 01:54:50;;;;;;;13.02;6.55;;;;;;;5.88;94.31;102038.72;5052313;28;20038;-81
2021/11/10 01:57:20;;;;;;;17.67;6.88;;;;;;;5.74;94.48;102029.00;5053374;28;20060;-81
2021/11/10 02:00:00;;;;;;;16.65;7.00;;;;;;;5.78;94.78;102034.94;5052795;28;20555;-81
2021/11/10 02:02:29;;;;;;;16.15;6.22;;;;;;;5.75;94.61;102035.16;5069032;28;20063;-80
2021/11/10 02:05:36;;;;;;;19.23;7.20;;;;;;;5.81;94.87;102054.16;5069124;28;20056;-80
2021/11/10 02:08:05;;;;;;;15.43;6.32;;;;;;;5.85;94.70;102063.63;5070274;28;20458;-80
2021/11/10 02:10:30;;;;;;;11.15;6.15;;;;;;;5.95;94.30;102068.34;5070231;28;20035;-81
2021/11/10 02:12:58;;;;;;;14.45;6.35;;;;;;;5.78;94.15;102049.03;5053723;28;20028;-80
2021/11/10 02:15:25;;;;;;;16.15;6.63;;;;;;;5.83;94.00;102043.44;5053557;28;20039;-80
2021/11/10 02:17:54;;;;;;;12.68;6.97;;;;;;;5.72;94.01;102025.63;5053348;28;20032;-80
2021/11/10 02:20:23;;;;;;;17.17;8.27;;;;;;;5.72;94.14;102038.84;5069727;28;20037;-81
2021/11/10 02:22:51;;;;;;;20.50;7.55;;;;;;;5.68;94.17;102029.41;5070015;28;20040;-80
2021/11/10 02:25:17;;;;;;;11.70;5.88;;;;;;;5.77;94.21;102034.09;5052857;28;20040;-80
2021/11/10 02:27:42;;;;;;;16.23;6.53;;;;;;;5.80;94.07;102039.19;5070038;28;20036;-80
2021/11/10 02:30:16;;;;;;;13.93;6.93;;;;;;;5.75;93.90;102029.84;5070716;28;20052;-80
2021/11/10 02:32:50;;;;;;;15.45;7.03;;;;;;;5.81;93.88;102040.91;5053107;28;20036;-80
2021/11/10 02:35:22;;;;;;;18.42;5.95;;;;;;;5.81;93.86;102022.38;5069471;28;20188;-80
2021/11/10 02:37:53;;;;;;;13.48;6.20;;;;;;;5.79;94.16;102032.22;5053153;28;20041;-80
2021/11/10 02:40:18;;;;;;;15.15;6.82;;;;;;;5.75;93.94;102025.41;5069483;28;20048;-81
2021/11/10 02:42:45;;;;;;;17.30;6.22;;;;;;;5.72;94.16;102020.31;5053077;28;20036;-80
2021/11/10 02:45:10;;;;;;;13.60;5.90;;;;;;;5.68;94.26;102005.56;5052922;28;20441;-80
2021/11/10 02:47:36;;;;;;;13.17;6.00;;;;;;;5.66;94.29;102000.34;5069920;28;20021;-82
2021/11/10 02:50:04;;;;;;;16.52;6.65;;;;;;;5.58;94.49;101988.56;5069482;28;20028;-81
2021/11/10 02:52:29;;;;;;;16.40;7.45;;;;;;;5.59;94.52;101988.44;5070312;28;20173;-81
2021/11/10 02:54:55;;;;;;;12.77;6.82;;;;;;;5.60;94.53;102003.41;5052576;28;20131;-80
2021/11/10 02:57:25;;;;;;;17.03;7.23;;;;;;;5.69;94.16;102012.56;5070448;28;20035;-80
2021/11/10 02:59:50;;;;;;;15.70;6.63;;;;;;;5.75;94.07;102006.84;5070487;28;20029;-79
2021/11/10 03:02:27;;;;;;;;;;;;;;;5.75;94.12;101987.47;5069694;28;20036;-80
2021/11/10 03:04:55;;;;;;;14.18;6.43;;;;;;;5.67;94.08;101980.03;5069159;28;19927;-80
2021/11/10 03:07:21;;;;;;;15.77;7.47;;;;;;;5.69;94.05;101983.41;5069202;28;20056;-81
2021/11/10 03:09:48;;;;;;;18.92;7.70;;;;;;;5.74;94.04;102002.50;5069169;28;20123;-81
2021/11/10 03:12:20;;;;;;;16.80;6.30;;;;;;;5.69;93.75;101980.78;5053788;28;20029;-80
2021/11/10 03:14:48;;;;;;;15.60;7.00;;;;;;;5.67;93.79;101969.41;5052520;28;20125;-80
2021/11/10 03:17:18;;;;;;;16.95;7.35;;;;;;;5.70;94.07;101974.50;5052521;28;20047;-80
2021/11/10 03:19:43;;;;;;;18.27;6.57;;;;;;;5.77;93.78;101985.56;5068822;28;20182;-80
2021/11/10 03:22:11;;;;;;;18.38;7.05;;;;;;;5.74;93.16;101968.06;5068717;28;20106;-79
2021/11/10 03:24:39;;;;;;;15.65;7.32;;;;;;;5.77;92.86;101964.38;5068151;28;20404;-80
2021/11/10 03:27:06;;;;;;;14.48;6.07;;;;;;;5.83;92.87;101972.75;5068571;28;20024;-80
2021/11/10 03:29:36;;;;;;;;;;;;;;;5.82;92.78;101968.41;5069192;28;20040;-80
2021/11/10 03:32:06;;;;;;;17.45;6.43;;;;;;;5.78;92.50;101956.28;5068445;28;19919;-80
2021/11/10 03:34:33;;;;;;;15.05;6.47;;;;;;;5.81;92.47;101956.09;5068235;28;20484;-79
2021/11/10 03:36:59;;;;;;;17.95;6.80;;;;;;;5.69;92.57;101944.53;5068401;28;20044;-80
2021/11/10 03:39:24;;;;;;;17.35;6.95;;;;;;;5.74;92.96;101952.16;5068440;28;20032;-80
2021/11/10 03:41:51;;;;;;;15.15;6.85;;;;;;;5.79;92.28;101962.47;5068400;28;20032;-79
2021/11/10 03:44:16;;;;;;;17.77;6.73;;;;;;;5.83;92.26;101969.25;5068093;28;20036;-80
2021/11/10 03:46:45;;;;;;;16.15;6.20;;;;;;;5.82;92.23;101963.09;5051746;28;20131;-80
2021/11/10 03:49:13;;;;;;;12.32;5.70;;;;;;;5.87;92.32;101968.94;5068226;28;20032;-80
2021/11/10 03:51:39;;;;;;;16.23;7.30;;;;;;;5.75;92.71;101945.91;5067757;28;20331;-80
2021/11/10 03:54:05;;;;;;;20.27;8.35;;;;;;;5.76;93.00;101952.03;5051011;28;20036;-80
2021/11/10 03:56:33;;;;;;;13.23;6.43;;;;;;;5.82;92.70;101960.44;5068190;28;20147;-81
2021/11/10 03:58:58;;;;;;;18.27;8.25;;;;;;;5.82;92.72;101965.75;5068045;28;20682;-80
2021/11/10 04:01:24;;;;;;;17.70;7.47;;;;;;;5.76;92.86;101952.91;5067801;28;20035;-80
2021/11/10 04:03:52;;;;;;;15.38;8.07;;;;;;;5.82;93.04;101968.41;5051456;28;20029;-80
2021/11/10 04:06:19;;;;;;;14.75;7.13;;;;;;;5.75;92.72;101961.81;5051519;28;20097;-80
2021/11/10 04:08:44;;;;;;;;;;;;;;;5.85;92.66;101970.84;5068420;28;20020;-79
2021/11/10 04:11:11;;;;;;;14.43;7.07;;;;;;;5.85;92.60;101968.22;5068013;28;19942;-80
2021/11/10 04:13:38;;;;;;;15.98;6.70;;;;;;;5.86;92.33;101948.69;5051142;28;20047;-80
2021/11/10 04:16:04;;;;;;;;;;;;;;;5.85;92.29;101931.09;5068193;28;20119;-80
2021/11/10 04:18:33;;;;;;;18.08;7.28;;;;;;;5.78;92.29;101913.88;5067929;28;20004;-80
2021/11/10 04:21:05;;;;;;;24.35;8.85;;;;;;;5.68;92.76;101911.00;5068296;28;20036;-80
2021/11/10 04:23:33;;;;;;;14.57;6.75;;;;;;;5.80;92.91;101938.50;5051095;28;20111;-80
2021/11/10 04:26:03;;;;;;;16.23;6.85;;;;;;;5.77;92.96;101932.56;5050808;28;20051;-80
2021/11/10 04:28:30;;;;;;;15.88;6.45;;;;;;;5.74;93.51;101928.31;5051361;28;20066;-80
2021/11/10 04:30:56;;;;;;;;;;;;;;;5.64;93.80;101911.31;5068097;28;20039;-80
2021/11/10 04:33:22;;;;;;;15.65;6.95;;;;;;;5.57;93.94;101905.59;5067432;28;19908;-80
2021/11/10 04:35:50;;;;;;;17.17;7.45;;;;;;;5.57;94.25;101920.63;5051392;28;20036;-80
2021/11/10 04:38:16;;;;;;;20.55;7.50;;;;;;;5.40;94.53;101906.69;5067534;28;20020;-81
2021/11/10 04:40:42;;;;;;;19.27;9.35;;;;;;;5.42;94.42;101919.84;5050849;28;20054;-80
2021/11/10 04:43:08;;;;;;;18.75;7.38;;;;;;;5.35;94.45;101906.16;5050784;28;20044;-80
2021/11/10 04:45:41;;;;;;;18.77;7.72;;;;;;;5.39;94.60;101912.94;5051887;28;20028;-81
2021/11/10 04:48:07;;;;;;;15.82;7.63;;;;;;;5.33;94.89;101908.03;5067641;28;20059;-80
2021/11/10 04:50:34;;;;;;;20.27;7.87;;;;;;;5.34;94.97;101924.78;5067653;28;20071;-80
2021/11/10 04:52:59;;;;;;;22.55;8.85;;;;;;;5.36;94.93;101929.03;5068117;28;20470;-80
2021/11/10 04:55:26;;;;;;;22.58;7.97;;;;;;;5.27;95.27;101917.25;5067340;28;20048;-81
2021/11/10 04:57:51;;;;;;;17.35;8.15;;;;;;;5.22;95.31;101915.81;5067409;28;20033;-80
2021/11/10 05:00:18;;;;;;;18.85;7.85;;;;;;;5.31;95.14;101940.88;5050850;28;20470;-81
2021/11/10 05:02:50;;;;;;;22.65;8.13;;;;;;;5.31;94.78;101935.56;5067354;28;20487;-81
2021/11/10 05:05:18;;;;;;;25.13;8.07;;;;;;;5.21;94.89;101914.97;5069405;28;20037;-80
2021/11/10 05:07:47;;;;;;;30.02;9.15;;;;;;;5.19;94.87;101918.69;5071578;28;20365;-80
2021/11/10 05:10:12;;;;;;;15.70;7.70;;;;;;;5.25;94.58;101936.81;5054581;28;20044;-81
2021/11/10 05:12:40;;;;;;;12.82;7.07;;;;;;;5.25;94.50;101932.38;5071534;28;20070;-81
2021/11/10 05:15:06;;;;;;;19.83;7.57;;;;;;;5.22;94.66;101932.59;5054426;28;20036;-81
2021/11/10 05:17:31;;;;;;;20.40;8.55;;;;;;;5.27;94.70;101942.88;5071312;28;20344;-81
2021/11/10 05:19:57;;;;;;;18.23;7.07;;;;;;;5.18;94.60;101923.13;5071226;28;20036;-81
2021/11/10 05:22:23;;;;;;;17.75;9.00;;;;;;;5.37;94.26;101941.31;5071293;28;20458;-81
2021/11/10 05:24:48;;;;;;;19.60;7.57;;;;;;;5.32;94.48;101938.13;5070361;28;20067;-81
2021/11/10 05:27:14;;;;;;;15.90;6.70;;;;;;;5.33;94.47;101934.53;5054607;28;20275;-80
2021/11/10 05:29:40;;;;;;;13.68;7.07;;;;;;;5.31;94.54;101936.41;5070921;28;20036;-81
2021/11/10 05:32:06;;;;;;;17.57;7.17;;;;;;;5.35;94.78;101958.25;5071174;28;20028;-80
2021/11/10 05:34:31;;;;;;;16.05;7.65;;;;;;;5.33;94.71;101942.47;5070804;28;20163;-81
2021/11/10 05:36:57;;;;;;;15.15;6.43;;;;;;;5.32;94.81;101943.44;5071811;28;20140;-80
2021/11/10 05:39:22;;;;;;;13.40;6.60;;;;;;;5.39;94.30;101928.84;5071861;28;20055;-81
2021/11/10 05:41:48;;;;;;;21.67;7.37;;;;;;;5.35;94.59;101916.72;5071017;28;20063;-81
2021/11/10 05:44:14;;;;;;;18.83;6.68;;;;;;;5.50;94.53;101936.94;5070616;28;20032;-81
2021/11/10 05:46:41;;;;;;;12.38;6.30;;;;;;;5.50;94.00;101936.94;5071372;28;20052;-81
2021/11/10 05:49:06;;;;;;;17.10;6.60;;;;;;;5.58;94.03;101951.47;5070359;28;20036;-82
2021/11/10 05:51:32;;;;;;;18.98;6.57;;;;;;;5.59;93.96;101951.34;5070337;28;20024;-82
2021/11/10 05:53:57;;;;;;;17.53;7.10;;;;;;;5.53;93.93;101924.44;5068752;28;20143;-83
2021/11/10 05:56:24;;;;;;;13.13;6.50;;;;;;;5.50;93.83;101922.81;5069357;28;20352;-84
2021/11/10 05:58:51;;;;;;;13.65;7.25;;;;;;;5.57;93.88;101928.56;5052517;28;20036;-82
2021/11/10 06:01:18;;;;;;;17.50;6.65;;;;;;;5.53;93.79;101927.09;5069109;28;20764;-82
2021/11/10 06:03:43;;;;;;;;;;;;;;;5.65;93.96;101944.81;5070100;28;20101;-85
2021/11/10 06:06:09;;;;;;;;;;;;;;;5.63;93.60;101934.31;5069903;28;20006;-82
2021/11/10 06:08:37;;;;;;;18.27;6.73;;;;;;;5.66;93.86;101941.22;5069424;28;19912;-82
2021/11/10 06:11:09;;;;;;;13.00;7.90;;;;;;;5.61;93.81;101933.56;5070358;28;20490;-82
2021/11/10 06:13:36;;;;;;;17.13;7.53;;;;;;;5.65;93.52;101934.22;5069141;28;20130;-84
2021/11/10 06:16:01;;;;;;;15.45;7.82;;;;;;;5.63;93.15;101922.88;5052087;28;20098;-83
2021/11/10 06:18:29;;;;;;;16.98;7.63;;;;;;;5.67;93.27;101919.91;5070357;28;20375;-84
2021/11/10 06:20:54;;;;;;;16.60;6.93;;;;;;;5.70;93.47;101917.06;5069177;28;20020;-82
2021/11/10 06:23:20;;;;;;;19.13;7.72;;;;;;;5.75;93.72;101921.22;5069709;28;20058;-82
2021/11/10 06:25:45;;;;;;;19.33;8.48;;;;;;;5.79;93.58;101933.31;5068459;28;20036;-81
2021/11/10 06:28:11;;;;;;;18.50;7.87;;;;;;;5.71;94.10;101923.19;5068997;28;20016;-81
2021/11/10 06:30:36;;;;;;;17.50;8.30;;;;;;;5.76;93.52;101926.41;5068981;28;20431;-81
2021/11/10 06:33:01;;;;;;;17.75;9.02;;;;;;;5.87;93.61;101949.53;5052251;28;20548;-81
2021/11/10 06:35:28;;;;;;;22.97;8.03;;;;;;;5.92;93.45;101940.34;5069569;28;20140;-81
2021/11/10 06:37:53;;;;;;;15.70;8.38;;;;;;;5.90;93.14;101926.34;5070159;28;20381;-83
2021/11/10 06:40:19;;;;;;;18.13;9.03;;;;;;;5.98;93.40;101947.06;5071001;28;20112;-80
2021/11/10 06:42:45;;;;;;;23.17;8.93;;;;;;;5.96;93.55;101948.13;5069828;28;20688;-81
2021/11/10 06:45:10;;;;;;;18.10;7.97;;;;;;;6.00;93.89;101957.56;5052958;28;20086;-81
2021/11/10 06:47:36;;;;;;;18.88;9.68;;;;;;;5.97;93.53;101949.78;5069341;28;20028;-80
2021/11/10 06:50:04;;;;;;;17.20;7.88;;;;;;;6.02;93.36;101956.50;5052068;28;20024;-81
2021/11/10 06:52:30;;;;;;;19.83;7.78;;;;;;;6.11;93.11;101960.31;5051283;28;20032;-80
2021/11/10 06:54:55;;;;;;;18.63;8.57;;;;;;;6.08;92.94;101948.13;5067709;28;20353;-80
2021/11/10 06:57:21;;;;;;;15.17;7.73;;;;;;;6.13;92.46;101942.50;5067692;28;20476;-81
2021/11/10 06:59:47;;;;;;;19.65;8.68;;;;;;;6.17;92.70;101964.38;5067754;28;20020;-81
2021/11/10 07:02:13;;;;;;;18.85;11.02;;;;;;;6.15;92.38;101942.41;5069158;28;20036;-80
2021/11/10 07:04:38;;;;;;;18.08;8.38;;;;;;;6.20;92.29;101956.19;5068849;28;20059;-81
2021/11/10 07:07:04;;;;;;;16.93;9.87;;;;;;;6.21;92.24;101956.09;5051366;28;20028;-82
2021/11/10 07:09:29;;;;;;;25.08;9.02;;;;;;;6.28;92.39;101970.66;5067949;28;20462;-81
2021/11/10 07:11:55;;;;;;;22.45;9.02;;;;;;;6.35;91.65;101957.81;5068089;28;20032;-81
2021/11/10 07:14:20;;;;;;;20.80;9.27;;;;;;;6.36;91.72;101961.31;5051121;28;20056;-80
2021/11/10 07:16:46;;;;;;;20.13;8.27;;;;;;;6.38;91.72;101962.91;5067877;28;20495;-80
2021/11/10 07:19:11;;;;;;;27.83;9.80;;;;;;;6.38;91.73;101964.72;5068792;28;20125;-81
2021/11/10 07:21:37;;;;;;;23.83;9.30;;;;;;;6.36;91.84;101959.50;5051311;28;20085;-80
2021/11/10 07:24:04;;;;;;;21.15;8.95;;;;;;;6.40;92.05;101968.13;5050370;28;20401;-81
2021/11/10 07:26:29;;;;;;;;;;;;;;;6.44;91.93;101975.75;5068655;28;20470;-81
2021/11/10 07:28:55;;;;;;;;;;;;;;;6.45;91.63;101963.34;5068563;28;19912;-80
2021/11/10 07:31:21;;;;;;;26.20;8.37;;;;;;;6.47;91.73;101958.78;5050962;28;19908;-80
2021/11/10 07:33:46;;;;;;;21.88;8.48;;;;;;;6.51;91.76;101960.25;5067324;28;20029;-81
2021/11/10 07:36:11;;;;;;;19.90;9.27;;;;;;;6.54;91.88;101965.34;5067484;28;20074;-81
2021/11/10 07:38:40;;;;;;;23.17;8.97;;;;;;;6.58;91.65;101974.81;5067367;28;20040;-80
2021/11/10 07:41:07;;;;;;;25.92;8.88;;;;;;;6.48;91.83;101949.84;5067469;28;20374;-80
2021/11/10 07:43:33;;;;;;;17.90;8.18;;;;;;;6.52;92.14;101975.22;5068655;28;20040;-80
2021/11/10 07:46:11;;;;;;;18.02;8.93;;;;;;;6.53;92.26;101976.91;5067591;28;20047;-82
2021/11/10 07:48:36;;;;;;;20.38;8.55;;;;;;;6.45;92.11;101960.69;5067524;28;20103;-81
2021/11/10 07:51:02;;;;;;;22.52;8.23;;;;;;;6.50;92.41;101975.31;5050511;28;20155;-80
2021/11/10 07:53:29;;;;;;;13.57;7.32;;;;;;;6.58;92.32;101993.38;5067673;28;20055;-81
2021/11/10 07:55:54;;;;;;;21.92;11.27;;;;;;;6.56;92.33;101987.31;5067265;28;20099;-80
2021/11/10 07:58:19;;;;;;;17.37;8.33;;;;;;;6.64;92.04;101990.28;5067131;28;20112;-80
2021/11/10 08:00:45;;;;;;;21.93;9.50;;;;;;;6.57;91.96;101977.56;5050540;28;20128;-80
2021/11/10 08:03:10;;;;;;;21.40;9.03;;;;;;;6.65;92.18;101999.97;5066853;28;20032;-81
2021/11/10 08:05:36;;;;;;;18.35;8.18;;;;;;;6.67;91.83;101998.06;5067771;28;20032;-81
2021/11/10 08:08:02;;;;;;;20.55;9.55;;;;;;;6.71;91.97;101994.19;5068126;28;20113;-80
2021/11/10 08:10:27;;;;;;;16.67;8.63;;;;;;;6.73;91.96;101981.69;5066977;28;20430;-80
2021/11/10 08:12:53;;;;;;;22.87;9.73;;;;;;;6.80;91.74;101987.41;5068048;28;20054;-81
2021/11/10 08:15:18;;;;;;;23.23;8.50;;;;;;;6.90;91.40;101998.22;5067601;28;20036;-80
2021/11/10 08:17:44;;;;;;;15.82;7.65;;;;;;;6.89;91.61;101984.13;5066914;28;20046;-81
2021/11/10 08:20:13;;;;;;;23.92;10.63;;;;;;;6.88;92.00;101987.75;5066788;28;20044;-80
2021/11/10 08:22:39;;;;;;;18.50;7.55;;;;;;;7.05;92.26;102018.41;5066733;28;20465;-80
2021/11/10 08:25:07;;;;;;;19.15;7.90;;;;;;;7.11;92.00;102007.31;5065997;28;20059;-80
2021/11/10 08:27:35;;;;;;;19.48;7.85;;;;;;;7.16;92.14;102007.00;5066488;28;20557;-80
2021/11/10 08:30:04;;;;;;;16.33;7.65;;;;;;;7.26;91.89;102020.47;5067352;28;20058;-80
2021/11/10 08:32:29;;;;;;;21.55;8.23;;;;;;;7.31;91.70;101997.09;5066392;28;20032;-80
2021/11/10 08:34:55;;;;;;;21.67;9.43;;;;;;;7.37;91.42;101996.63;5049533;28;20020;-80
2021/11/10 08:37:20;;;;;;;18.40;7.90;;;;;;;7.46;91.24;101993.31;5066260;28;20136;-80
2021/11/10 08:39:46;;;;;;;17.10;8.80;;;;;;;7.29;91.23;101961.81;5066095;28;20133;-80
2021/11/10 08:42:12;;;;;;;14.13;7.07;;;;;;;7.45;91.70;101988.97;5066290;28;20041;-80
2021/11/10 08:44:41;;;;;;;25.50;8.68;;;;;;;7.34;91.72;101970.31;5049230;28;20041;-80
2021/11/10 08:47:07;;;;;;;18.02;8.00;;;;;;;7.48;91.39;101983.44;5067659;28;20036;-80
2021/11/10 08:49:33;;;;;;;22.33;8.90;;;;;;;7.52;91.45;101968.13;5049552;28;20365;-79
2021/11/10 08:51:58;;;;;;;15.80;8.40;;;;;;;7.46;91.45;101961.44;5067139;28;20115;-80
2021/11/10 08:54:25;;;;;;;17.48;7.82;;;;;;;7.59;91.52;101983.50;5066138;28;20043;-80
2021/11/10 08:56:56;;;;;;;18.58;8.43;;;;;;;7.59;91.61;101978.19;5066197;28;20044;-80
2021/11/10 08:59:21;;;;;;;19.02;6.85;;;;;;;7.69;92.05;101980.16;5067084;28;20033;-80
2021/11/10 09:01:51;;;;;;;18.10;7.20;;;;;;;7.76;92.03;101976.94;5067318;28;20449;-79
2021/11/10 09:04:17;;;;;;;21.42;7.63;;;;;;;7.97;91.90;102003.72;5049058;28;20039;-80
2021/11/10 09:06:44;;;;;;;16.58;7.90;;;;;;;8.22;92.06;102012.53;5067230;28;20024;-80
2021/11/10 09:09:10;;;;;;;16.88;7.93;;;;;;;8.50;91.22;102007.78;5066082;28;20044;-80
2021/11/10 09:11:35;;;;;;;17.20;6.73;;;;;;;8.82;91.03;102015.94;5066210;28;20036;-80
2021/11/10 09:14:01;;;;;;;13.43;6.37;;;;;;;9.19;89.71;102021.88;5066682;28;20123;-80
2021/11/10 09:16:26;;;;;;;14.85;6.43;;;;;;;9.98;87.91;102029.69;5066156;28;20381;-80
2021/11/10 09:18:52;;;;;;;15.73;5.97;;;;;;;10.30;85.07;101954.09;5066859;28;20036;-80
2021/11/10 09:21:17;;;;;;;14.73;6.60;;;;;;;9.92;83.76;101891.47;5066939;28;20493;-79
2021/11/10 09:23:43;;;;;;;14.05;6.57;;;;;;;9.66;85.51;101897.19;5066007;28;20039;-79
2021/11/10 09:26:08;;;;;;;14.93;6.53;;;;;;;9.85;85.34;101914.31;5065774;28;20052;-79
2021/11/10 09:28:36;;;;;;;15.88;6.85;;;;;;;9.98;84.88;101924.81;5065861;28;20107;-80
2021/11/10 09:31:01;;;;;;;13.32;6.15;;;;;;;10.43;84.17;101948.56;5065753;28;20047;-80
2021/11/10 09:33:27;;;;;;;14.35;7.40;;;;;;;10.29;83.43;101899.03;5048881;28;20037;-79
2021/11/10 09:35:53;;;;;;;14.38;6.55;;;;;;;11.10;82.33;101949.84;5049206;28;20486;-80
2021/11/10 09:38:20;;;;;;;15.18;6.30;;;;;;;10.95;80.28;101867.34;5065674;28;20032;-79
2021/11/10 09:40:45;;;;;;;15.52;6.00;;;;;;;11.10;81.25;101915.09;5065586;28;20025;-79
2021/11/10 09:43:13;;;;;;;18.35;7.13;;;;;;;11.16;81.04;101903.81;5065423;28;20028;-79
2021/11/10 09:45:39;;;;;;;16.45;6.45;;;;;;;10.92;81.95;101907.72;5066506;28;20051;-80
2021/11/10 09:48:07;;;;;;;14.20;7.07;;;;;;;10.61;82.11;101887.38;5049057;28;20021;-80
2021/11/10 09:50:35;;;;;;;17.38;6.45;;;;;;;10.05;84.18;101886.78;5067478;28;20095;-79
2021/11/10 09:53:02;;;;;;;13.73;6.22;;;;;;;10.15;84.98;101935.72;5069988;28;20036;-79
2021/11/10 09:55:30;;;;;;;11.63;6.20;;;;;;;9.85;85.63;101923.16;5068961;28;20028;-79
2021/11/10 09:57:57;;;;;;;14.90;7.25;;;;;;;9.93;86.49;101935.84;5070354;28;20037;-80
2021/11/10 10:00:26;;;;;;;14.07;6.53;;;;;;;9.71;86.49;101916.28;5069044;28;20040;-79
2021/11/10 10:02:52;;;;;;;18.30;6.25;;;;;;;9.59;87.17;101925.31;5068919;28;20048;-79
2021/11/10 10:05:21;;;;;;;16.10;6.50;;;;;;;9.37;87.50;101920.94;5069675;28;20077;-79
2021/11/10 10:07:49;;;;;;;15.00;7.57;;;;;;;9.18;88.75;101950.91;5069037;28;20209;-79
2021/11/10 10:10:15;;;;;;;17.20;7.15;;;;;;;8.81;89.49;101935.19;5068935;28;20093;-79
2021/11/10 10:12:41;;;;;;;18.40;8.30;;;;;;;8.67;90.40;101940.78;5070149;28;20040;-80
2021/11/10 10:15:11;;;;;;;22.08;8.05;;;;;;;8.87;90.82;101976.47;5069619;28;20120;-79
2021/11/10 10:17:45;;;;;;;11.65;6.80;;;;;;;8.82;90.66;101966.16;5069915;28;20510;-79
2021/11/10 10:20:27;;;;;;;15.65;7.82;;;;;;;8.76;91.03;101968.50;5069144;28;20032;-80
2021/11/10 10:22:56;;;;;;;15.27;7.30;;;;;;;8.81;91.12;101974.31;5052032;28;20081;-79
2021/11/10 10:25:35;;;;;;;13.73;6.13;;;;;;;8.77;91.57;101972.84;5068143;28;20558;-80
2021/11/10 10:28:01;;;;;;;14.90;6.50;;;;;;;8.91;91.67;101991.25;5068616;28;20523;-80
2021/11/10 10:30:30;;;;;;;15.35;7.03;;;;;;;8.98;92.01;101991.59;5068675;28;20190;-79
2021/11/10 10:33:02;;;;;;;13.07;7.30;;;;;;;9.09;91.89;101994.28;5068526;28;20036;-80
2021/11/10 10:35:47;;;;;;;12.88;7.50;;;;;;;9.19;92.18;101991.72;5051753;28;20028;-79
2021/11/10 10:38:22;;;;;;;15.10;6.45;;;;;;;9.20;91.89;101994.25;5068663;28;20343;-79
2021/11/10 10:40:50;;;;;;;13.48;6.70;;;;;;;9.28;92.01;102005.13;5068391;28;20054;-79
2021/11/10 10:43:17;;;;;;;11.40;6.25;;;;;;;9.27;92.07;101997.25;5068123;28;20486;-79
2021/11/10 10:45:48;;;;;;;12.32;5.32;;;;;;;9.27;92.16;102000.78;5068420;28;20031;-79
2021/11/10 10:48:15;;;;;;;13.75;7.00;;;;;;;9.24;92.11;101997.50;5068333;28;20390;-80
2021/11/10 10:50:51;;;;;;;14.35;6.75;;;;;;;9.21;92.01;101987.94;5069761;28;20143;-80
2021/11/10 10:53:19;;;;;;;;;;;;;;;9.08;92.43;101976.56;5068068;28;20072;-78
2021/11/10 10:55:48;;;;;;;15.75;6.82;;;;;;;9.03;92.58;101978.75;5069147;28;19908;-79
2021/11/10 10:58:31;;;;;;;13.88;6.85;;;;;;;9.13;92.73;101995.72;5068190;28;20413;-79
2021/11/10 11:01:15;;;;;;;17.27;6.35;;;;;;;9.05;92.85;101976.81;5068245;28;20044;-79
2021/11/10 11:03:48;;;;;;;10.77;6.30;;;;;;;9.17;92.84;101985.66;5068118;28;20452;-79
2021/11/10 11:06:23;;;;;;;12.60;6.57;;;;;;;9.17;92.72;101978.50;5068346;28;20094;-79
2021/11/10 11:08:49;;;;;;;12.43;6.13;;;;;;;9.36;93.12;102001.00;5051148;28;20032;-79
2021/11/10 11:11:26;;;;;;;;;;;;;;;9.48;92.85;102005.34;5068241;28;20101;-79
2021/11/10 11:13:58;;;;;;;23.80;6.85;;;;;;;9.55;92.45;101995.03;5067406;28;19916;-79
2021/11/10 11:16:35;;;;;;;17.45;7.32;;;;;;;9.42;91.99;101974.72;5067831;28;20028;-80
2021/11/10 11:19:12;;;;;;;17.52;8.05;;;;;;;9.47;92.18;101969.00;5051026;28;20461;-79
2021/11/10 11:21:55;;;;;;;14.93;6.68;;;;;;;9.50;92.56;101984.72;5050891;28;20381;-79
2021/11/10 11:24:41;;;;;;;14.75;6.63;;;;;;;9.60;92.54;101998.16;5067688;28;20505;-79
2021/11/10 11:27:10;;;;;;;13.20;5.65;;;;;;;9.47;92.41;101969.00;5068530;28;20032;-80